createdAt,value
2022-10-14T00:01:13.187Z,16.36
2022-10-14T00:03:40.637Z,16.50
2022-10-14T00:06:10.485Z,16.52
2022-10-14T00:08:37.869Z,16.58
2022-10-14T00:11:10.757Z,16.47
2022-10-14T00:13:38.363Z,16.57
2022-10-14T00:16:06.364Z,16.57
2022-10-14T00:18:33.672Z,16.55
2022-10-14T00:21:02.050Z,16.58
2022-10-14T00:23:30.765Z,16.49
2022-10-14T00:25:58.003Z,16.50
2022-10-14T00:28:30.488Z,16.54
2022-10-14T00:30:59.819Z,16.52
2022-10-14T00:33:28.040Z,16.50
2022-10-14T00:35:58.982Z,16.69
2022-10-14T00:38:31.887Z,16.68
2022-10-14T00:40:59.204Z,16.66
2022-10-14T00:43:27.886Z,16.55
2022-10-14T00:45:55.159Z,16.68
2022-10-14T00:48:24.984Z,16.55
2022-10-14T00:50:56.609Z,16.49
2022-10-14T00:53:23.888Z,16.60
2022-10-14T00:55:53.172Z,16.51
2022-10-14T00:58:23.862Z,16.51
2022-10-14T01:00:51.306Z,16.57
2022-10-14T01:03:21.270Z,16.56
2022-10-14T01:05:55.497Z,16.49
2022-10-14T01:08:31.640Z,16.64
2022-10-14T01:11:14.997Z,16.42
2022-10-14T01:13:50.895Z,16.56
2022-10-14T01:16:21.792Z,16.63
2022-10-14T01:19:33.393Z,16.60
2022-10-14T01:22:32.573Z,16.81
2022-10-14T01:25:20.471Z,16.67
2022-10-14T01:28:16.645Z,16.71
2022-10-14T01:30:47.070Z,16.63
2022-10-14T01:33:24.793Z,16.55
2022-10-14T01:36:12.309Z,16.71
2022-10-14T01:38:45.412Z,16.84
2022-10-14T01:41:29.109Z,16.88
2022-10-14T01:44:00.548Z,16.79
2022-10-14T01:46:29.680Z,16.80
2022-10-14T01:49:01.878Z,16.76
2022-10-14T01:51:33.322Z,16.81
2022-10-14T01:54:04.717Z,16.94
2022-10-14T01:56:35.011Z,16.93
2022-10-14T01:59:06.936Z,16.96
2022-10-14T02:01:35.004Z,17.00
2022-10-14T02:04:02.483Z,17.11
2022-10-14T02:06:32.601Z,17.09
2022-10-14T02:09:12.830Z,17.19
2022-10-14T02:11:57.332Z,17.01
2022-10-14T02:14:27.593Z,17.12
2022-10-14T02:16:55.928Z,16.95
2022-10-14T02:19:28.794Z,16.98
2022-10-14T02:22:02.072Z,17.09
2022-10-14T02:24:38.377Z,17.13
2022-10-14T02:27:09.597Z,17.14
2022-10-14T02:29:39.081Z,17.16
2022-10-14T02:32:07.331Z,17.19
2022-10-14T02:34:35.448Z,17.26
2022-10-14T02:37:03.498Z,17.31
2022-10-14T02:39:36.756Z,17.39
2022-10-14T02:42:05.834Z,17.31
2022-10-14T02:44:34.727Z,17.36
2022-10-14T02:47:02.131Z,17.40
2022-10-14T02:49:30.551Z,17.38
2022-10-14T02:51:57.812Z,17.28
2022-10-14T02:54:25.067Z,17.12
2022-10-14T02:56:52.320Z,17.13
2022-10-14T02:59:19.533Z,17.20
2022-10-14T03:01:47.101Z,17.18
2022-10-14T03:04:16.305Z,17.22
2022-10-14T03:06:43.575Z,17.29
2022-10-14T03:09:10.797Z,17.05
2022-10-14T03:11:40.974Z,17.11
2022-10-14T03:14:13.436Z,17.27
2022-10-14T03:16:42.342Z,17.12
2022-10-14T03:19:12.347Z,17.15
2022-10-14T03:21:44.423Z,17.04
2022-10-14T03:24:18.343Z,16.82
2022-10-14T03:26:47.691Z,16.97
2022-10-14T03:29:20.068Z,16.98
2022-10-14T03:31:55.362Z,16.98
2022-10-14T03:34:41.125Z,17.21
2022-10-14T03:37:15.090Z,17.20
2022-10-14T03:39:49.051Z,17.29
2022-10-14T03:42:17.483Z,17.27
2022-10-14T03:44:47.868Z,17.24
2022-10-14T03:47:19.072Z,17.24
2022-10-14T03:49:46.576Z,17.09
2022-10-14T03:52:34.040Z,17.26
2022-10-14T03:55:18.029Z,17.27
2022-10-14T03:57:47.566Z,17.35
2022-10-14T04:00:16.656Z,17.26
2022-10-14T04:02:50.001Z,17.25
2022-10-14T04:05:33.671Z,17.40
2022-10-14T04:08:04.158Z,16.84
2022-10-14T04:10:31.796Z,16.71
2022-10-14T04:13:01.818Z,16.84
2022-10-14T04:15:36.553Z,16.60
2022-10-14T04:18:24.005Z,16.68
2022-10-14T04:20:53.768Z,16.75
2022-10-14T04:23:23.322Z,16.88
2022-10-14T04:25:54.948Z,16.77
2022-10-14T04:28:23.643Z,16.87
2022-10-14T04:31:00.545Z,16.97
2022-10-14T04:33:35.061Z,17.09
2022-10-14T04:36:10.531Z,17.25
2022-10-14T04:38:40.771Z,17.27
2022-10-14T04:41:10.377Z,17.35
2022-10-14T04:43:41.821Z,17.41
2022-10-14T04:46:20.691Z,17.31
2022-10-14T04:48:49.172Z,17.13
2022-10-14T04:51:17.789Z,16.99
2022-10-14T04:54:02.986Z,17.05
2022-10-14T04:56:56.949Z,16.89
2022-10-14T04:59:24.223Z,17.06
2022-10-14T05:02:01.106Z,17.18
2022-10-14T05:04:37.701Z,17.27
2022-10-14T05:07:04.996Z,17.22
2022-10-14T05:09:33.396Z,17.27
2022-10-14T05:12:01.220Z,17.29
2022-10-14T05:14:38.619Z,17.18
2022-10-14T05:17:22.687Z,16.98
2022-10-14T05:19:49.935Z,16.88
2022-10-14T05:22:19.379Z,17.08
2022-10-14T05:24:46.953Z,17.19
2022-10-14T05:27:14.874Z,17.17
2022-10-14T05:29:43.215Z,17.23
2022-10-14T05:32:10.711Z,17.26
2022-10-14T05:34:45.066Z,17.27
2022-10-14T05:37:25.103Z,17.37
2022-10-14T05:39:56.213Z,17.44
2022-10-14T05:42:26.536Z,17.41
2022-10-14T05:44:56.800Z,17.28
2022-10-14T05:47:25.118Z,17.11
2022-10-14T05:49:57.695Z,17.13
2022-10-14T05:52:25.288Z,17.18
2022-10-14T05:54:53.835Z,17.19
2022-10-14T05:57:24.885Z,17.13
2022-10-14T05:59:52.079Z,17.18
2022-10-14T06:02:19.664Z,17.20
2022-10-14T06:04:47.619Z,17.06
2022-10-14T06:07:15.096Z,17.06
2022-10-14T06:09:42.559Z,17.11
2022-10-14T06:12:10.264Z,17.19
2022-10-14T06:14:38.834Z,17.18
2022-10-14T06:17:06.583Z,17.30
2022-10-14T06:19:34.008Z,17.42
2022-10-14T06:22:01.238Z,17.27
2022-10-14T06:24:28.738Z,17.39
2022-10-14T06:26:56.030Z,17.29
2022-10-14T06:29:26.582Z,17.19
2022-10-14T06:31:53.804Z,17.09
2022-10-14T06:34:23.750Z,17.21
2022-10-14T06:36:50.990Z,17.16
2022-10-14T06:39:18.167Z,17.07
2022-10-14T06:41:45.435Z,17.24
2022-10-14T06:44:20.442Z,17.26
2022-10-14T06:46:47.736Z,17.05
2022-10-14T06:49:14.963Z,17.17
2022-10-14T06:51:42.278Z,17.21
2022-10-14T06:54:09.503Z,17.39
2022-10-14T06:56:36.738Z,17.39
2022-10-14T06:59:05.830Z,17.46
2022-10-14T07:01:33.117Z,17.38
2022-10-14T07:04:00.383Z,17.31
2022-10-14T07:06:27.650Z,17.20
2022-10-14T07:08:54.881Z,16.94
2022-10-14T07:11:22.279Z,16.76
2022-10-14T07:13:49.650Z,16.42
2022-10-14T07:16:16.863Z,16.56
2022-10-14T07:18:44.161Z,16.72
2022-10-14T07:21:11.730Z,16.71
2022-10-14T07:23:39.031Z,16.75
2022-10-14T07:26:06.317Z,16.64
2022-10-14T07:28:34.191Z,16.67
2022-10-14T07:31:04.037Z,16.47
2022-10-14T07:33:31.380Z,16.52
2022-10-14T07:36:03.317Z,16.71
2022-10-14T07:38:31.387Z,16.74
2022-10-14T07:41:07.771Z,16.82
2022-10-14T07:43:35.895Z,17.09
2022-10-14T07:46:05.219Z,16.96
2022-10-14T07:48:45.246Z,16.75
2022-10-14T07:51:21.559Z,16.95
2022-10-14T07:53:50.179Z,16.77
2022-10-14T07:56:17.464Z,16.92
2022-10-14T07:58:44.757Z,17.05
2022-10-14T08:01:12.837Z,16.86
2022-10-14T08:03:40.192Z,17.11
2022-10-14T08:06:07.583Z,17.22
2022-10-14T08:08:35.738Z,17.22
2022-10-14T08:11:24.717Z,17.11
2022-10-14T08:13:52.200Z,17.18
2022-10-14T08:16:21.621Z,17.06
2022-10-14T08:18:49.765Z,17.12
2022-10-14T08:21:18.169Z,17.18
2022-10-14T08:23:45.591Z,17.40
2022-10-14T08:26:18.614Z,17.39
2022-10-14T08:28:46.162Z,17.30
2022-10-14T08:31:13.631Z,17.44
2022-10-14T08:33:40.813Z,17.52
2022-10-14T08:36:08.661Z,17.51
2022-10-14T08:38:35.926Z,17.46
2022-10-14T08:41:12.295Z,17.44
2022-10-14T08:43:43.303Z,17.52
2022-10-14T08:46:19.249Z,17.68
2022-10-14T08:48:48.112Z,17.62
2022-10-14T08:51:17.576Z,17.60
2022-10-14T08:53:56.179Z,17.38
2022-10-14T08:56:24.601Z,17.43
2022-10-14T08:58:53.991Z,17.48
2022-10-14T09:01:36.265Z,17.23
2022-10-14T09:04:10.718Z,17.19
2022-10-14T09:06:40.282Z,17.20
2022-10-14T09:09:16.756Z,17.20
2022-10-14T09:11:46.289Z,17.31
2022-10-14T09:14:21.607Z,17.32
2022-10-14T09:16:54.181Z,17.42
2022-10-14T09:19:46.882Z,17.01
2022-10-14T09:22:15.406Z,16.93
2022-10-14T09:24:46.154Z,17.21
2022-10-14T09:27:17.645Z,17.41
2022-10-14T09:29:57.244Z,17.48
2022-10-14T09:32:30.626Z,17.51
2022-10-14T09:34:58.718Z,17.55
2022-10-14T09:37:26.091Z,17.64
2022-10-14T09:39:56.560Z,17.42
2022-10-14T09:42:26.047Z,17.42
2022-10-14T09:45:14.265Z,17.56
2022-10-14T09:47:59.193Z,17.83
2022-10-14T09:50:39.800Z,17.77
2022-10-14T09:53:13.888Z,17.77
2022-10-14T09:55:48.235Z,17.60
2022-10-14T09:58:41.444Z,17.47
2022-10-14T10:01:14.504Z,17.62
2022-10-14T10:03:42.114Z,17.63
2022-10-14T10:06:11.965Z,17.74
2022-10-14T10:09:01.353Z,17.67
2022-10-14T10:11:40.080Z,17.66
2022-10-14T10:14:27.682Z,17.68
2022-10-14T10:17:07.262Z,17.91
2022-10-14T10:19:37.565Z,17.96
2022-10-14T10:22:24.612Z,18.02
2022-10-14T10:25:01.078Z,17.91
2022-10-14T10:27:36.605Z,18.03
2022-10-14T10:30:22.076Z,18.08
2022-10-14T10:32:52.321Z,18.26
2022-10-14T10:35:22.173Z,18.19
2022-10-14T10:38:03.332Z,18.19
2022-10-14T10:40:52.782Z,18.43
2022-10-14T10:43:19.983Z,18.44
2022-10-14T10:46:01.248Z,18.45
2022-10-14T10:48:48.015Z,18.66
2022-10-14T10:51:34.467Z,18.58
2022-10-14T10:54:39.883Z,18.07
2022-10-14T10:57:18.182Z,18.16
2022-10-14T10:59:56.334Z,18.25
2022-10-14T11:02:58.242Z,18.18
2022-10-14T11:05:47.443Z,18.43
2022-10-14T11:08:45.704Z,18.33
2022-10-14T11:12:04.758Z,18.52
2022-10-14T11:14:47.410Z,18.37
2022-10-14T11:17:14.623Z,18.21
2022-10-14T11:20:01.083Z,18.12
2022-10-14T11:22:48.015Z,18.01
2022-10-14T11:25:40.872Z,18.12
2022-10-14T11:28:12.662Z,18.12
2022-10-14T11:30:39.842Z,18.39
2022-10-14T11:33:45.574Z,18.36
2022-10-14T11:36:25.294Z,18.37
2022-10-14T11:39:16.464Z,18.22
2022-10-14T11:41:55.968Z,18.07
2022-10-14T11:44:32.393Z,18.15
2022-10-14T11:47:04.507Z,17.82
2022-10-14T11:49:36.675Z,17.61
2022-10-14T11:52:07.749Z,17.72
2022-10-14T11:54:43.662Z,17.65
2022-10-14T11:57:20.347Z,17.64
2022-10-14T12:00:01.173Z,17.39
2022-10-14T12:02:41.067Z,17.44
2022-10-14T12:05:44.514Z,17.44
2022-10-14T12:08:22.229Z,17.06
2022-10-14T12:10:58.297Z,17.25
2022-10-14T12:13:32.563Z,17.34
2022-10-14T12:16:05.456Z,17.15
2022-10-14T12:18:33.085Z,16.94
2022-10-14T12:21:08.649Z,16.93
2022-10-14T12:23:47.294Z,16.79
2022-10-14T12:26:20.495Z,16.83
2022-10-14T12:28:47.931Z,16.72
2022-10-14T12:31:38.298Z,16.66
2022-10-14T12:34:11.613Z,16.67
2022-10-14T12:36:39.817Z,16.78
2022-10-14T12:39:19.030Z,16.88
2022-10-14T12:42:10.473Z,16.81
2022-10-14T12:44:51.860Z,16.73
2022-10-14T12:47:21.258Z,16.83
2022-10-14T12:49:56.470Z,16.83
2022-10-14T12:52:27.225Z,16.84
2022-10-14T12:54:55.209Z,16.80
2022-10-14T12:57:28.685Z,16.90
2022-10-14T12:59:59.352Z,16.83
2022-10-14T13:02:33.088Z,16.83
2022-10-14T13:05:06.820Z,17.00
2022-10-14T13:07:42.896Z,16.93
2022-10-14T13:10:50.414Z,16.94
2022-10-14T13:13:44.837Z,17.02
2022-10-14T13:16:21.154Z,16.72
2022-10-14T13:18:53.222Z,17.04
2022-10-14T13:21:34.815Z,16.97
2022-10-14T13:24:06.037Z,17.02
2022-10-14T13:26:54.639Z,17.13
2022-10-14T13:29:40.637Z,17.27
2022-10-14T13:32:25.858Z,17.34
2022-10-14T13:35:01.244Z,17.17
2022-10-14T13:38:05.474Z,16.94
2022-10-14T13:40:43.751Z,16.98
2022-10-14T13:43:20.036Z,17.13
2022-10-14T13:45:53.381Z,17.25
2022-10-14T13:48:30.968Z,17.42
2022-10-14T13:51:24.687Z,17.40
2022-10-14T13:54:17.188Z,17.51
2022-10-14T13:56:44.939Z,17.49
2022-10-14T13:59:43.130Z,17.36
2022-10-14T14:02:16.150Z,17.35
2022-10-14T14:04:51.557Z,17.42
2022-10-14T14:07:59.230Z,17.36
2022-10-14T14:10:18.857Z,17.14
2022-10-14T14:12:46.718Z,17.26
2022-10-14T14:15:21.631Z,17.24
2022-10-14T14:17:48.967Z,17.28
2022-10-14T14:20:24.441Z,17.38
2022-10-14T14:22:54.097Z,17.38
2022-10-14T14:25:35.716Z,17.30
2022-10-14T14:28:15.409Z,16.96
2022-10-14T14:30:54.293Z,17.18
2022-10-14T14:33:33.964Z,17.23
2022-10-14T14:36:03.912Z,17.29
2022-10-14T14:38:33.420Z,17.41
2022-10-14T14:41:06.057Z,17.50
2022-10-14T14:43:37.406Z,17.40
2022-10-14T14:46:07.178Z,17.32
2022-10-14T14:48:34.497Z,17.44
2022-10-14T14:51:01.855Z,17.53
2022-10-14T14:53:32.189Z,17.51
2022-10-14T14:56:10.423Z,17.67
2022-10-14T14:58:49.234Z,17.63
2022-10-14T15:01:28.978Z,17.70
2022-10-14T15:04:12.652Z,17.74
2022-10-14T15:07:04.097Z,17.90
2022-10-14T15:10:00.856Z,17.97
2022-10-14T15:12:30.991Z,17.85
2022-10-14T15:14:59.823Z,17.95
2022-10-14T15:17:30.130Z,18.10
2022-10-14T15:20:01.291Z,18.16
2022-10-14T15:22:36.568Z,18.14
2022-10-14T15:25:10.365Z,18.02
2022-10-14T15:27:37.533Z,18.23
2022-10-14T15:30:31.781Z,18.34
2022-10-14T15:33:06.118Z,18.38
2022-10-14T15:35:34.197Z,18.50
2022-10-14T15:38:01.498Z,18.48
2022-10-14T15:40:32.364Z,18.23
2022-10-14T15:42:59.708Z,18.37
2022-10-14T15:45:27.110Z,18.49
2022-10-14T15:48:00.707Z,18.56
2022-10-14T15:50:28.170Z,18.58
2022-10-14T15:52:56.884Z,18.56
2022-10-14T15:55:27.138Z,18.63
2022-10-14T15:57:54.512Z,18.65
2022-10-14T16:00:23.636Z,18.78
2022-10-14T16:02:54.529Z,18.72
2022-10-14T16:05:21.903Z,18.80
2022-10-14T16:07:49.491Z,18.79
2022-10-14T16:10:21.563Z,18.83
2022-10-14T16:12:49.584Z,18.77
2022-10-14T16:15:22.599Z,18.78
2022-10-14T16:17:52.814Z,18.72
2022-10-14T16:20:21.478Z,18.84
2022-10-14T16:22:48.965Z,18.82
2022-10-14T16:25:23.971Z,18.80
2022-10-14T16:27:51.319Z,18.82
2022-10-14T16:30:18.793Z,18.84
2022-10-14T16:32:45.980Z,18.84
2022-10-14T16:35:13.239Z,18.88
2022-10-14T16:37:41.092Z,18.85
2022-10-14T16:40:10.919Z,19.00
2022-10-14T16:42:38.373Z,18.97
2022-10-14T16:45:06.278Z,18.88
2022-10-14T16:47:33.689Z,18.84
2022-10-14T16:50:00.981Z,18.83
2022-10-14T16:52:28.213Z,18.80
2022-10-14T16:54:55.505Z,18.80
2022-10-14T16:57:22.790Z,18.82
2022-10-14T16:59:50.059Z,18.76
2022-10-14T17:02:18.036Z,18.72
2022-10-14T17:04:46.541Z,18.76
2022-10-14T17:07:16.592Z,18.75
2022-10-14T17:09:43.857Z,18.81
2022-10-14T17:12:13.779Z,19.06
2022-10-14T17:14:41.655Z,19.11
2022-10-14T17:17:10.373Z,19.00
2022-10-14T17:19:38.429Z,18.94
2022-10-14T17:22:05.859Z,19.40
2022-10-14T17:24:33.084Z,19.06
2022-10-14T17:27:04.567Z,19.01
2022-10-14T17:29:32.107Z,18.97
2022-10-14T17:31:59.299Z,19.05
2022-10-14T17:34:26.540Z,18.94
2022-10-14T17:36:54.307Z,19.08
2022-10-14T17:39:27.587Z,19.17
2022-10-14T17:41:56.714Z,19.09
2022-10-14T17:44:24.565Z,19.01
2022-10-14T17:46:52.030Z,19.06
2022-10-14T17:49:19.890Z,19.06
2022-10-14T17:51:47.377Z,19.08
2022-10-14T17:54:14.684Z,18.90
2022-10-14T17:56:43.091Z,18.79
2022-10-14T17:59:11.957Z,18.84
2022-10-14T18:04:26.494Z,18.88
2022-10-14T18:06:54.230Z,18.94
2022-10-14T18:09:21.725Z,18.91
2022-10-14T18:14:39.039Z,18.94
2022-10-14T18:17:06.469Z,18.92
2022-10-14T18:19:36.360Z,18.87
2022-10-14T18:22:04.132Z,18.94
2022-10-14T18:24:32.336Z,18.97
2022-10-14T18:26:59.529Z,19.06
2022-10-14T18:29:26.822Z,19.06
2022-10-14T18:31:54.016Z,18.93
2022-10-14T18:34:22.454Z,18.94
2022-10-14T18:36:49.874Z,18.93
2022-10-14T18:39:17.065Z,18.89
2022-10-14T18:41:44.398Z,18.94
2022-10-14T18:44:12.083Z,19.08
2022-10-14T18:46:40.418Z,18.92
2022-10-14T18:49:10.278Z,18.90
2022-10-14T18:51:38.831Z,18.85
2022-10-14T18:54:20.550Z,18.75
2022-10-14T18:56:48.023Z,18.78
2022-10-14T18:59:23.368Z,18.65
2022-10-14T19:01:55.221Z,18.51
2022-10-14T19:04:26.678Z,18.65
2022-10-14T19:06:54.016Z,18.85
2022-10-14T19:09:24.493Z,18.59
2022-10-14T19:11:52.707Z,18.47
2022-10-14T19:14:22.337Z,18.35
2022-10-14T19:16:49.854Z,18.13
2022-10-14T19:19:19.550Z,18.08
2022-10-14T19:21:51.034Z,18.12
2022-10-14T19:24:18.435Z,18.35
2022-10-14T19:26:46.875Z,18.18
2022-10-14T19:29:15.716Z,17.91
2022-10-14T19:31:43.898Z,17.92
2022-10-14T19:34:14.520Z,17.85
2022-10-14T19:36:43.507Z,17.81
2022-10-14T19:39:13.418Z,17.87
2022-10-14T19:41:46.254Z,17.88
2022-10-14T19:44:15.484Z,17.98
2022-10-14T19:46:44.302Z,17.62
2022-10-14T19:49:13.410Z,17.61
2022-10-14T19:51:40.867Z,17.43
2022-10-14T19:54:09.942Z,17.65
2022-10-14T19:56:37.197Z,17.70
2022-10-14T19:59:04.431Z,17.54
2022-10-14T20:01:32.343Z,17.50
2022-10-14T20:04:00.803Z,17.34
2022-10-14T20:06:31.709Z,17.09
2022-10-14T20:08:58.999Z,17.05
2022-10-14T20:11:26.448Z,17.12
2022-10-14T20:13:53.898Z,16.98
2022-10-14T20:16:21.072Z,17.09
2022-10-14T20:18:48.335Z,17.37
2022-10-14T20:21:16.184Z,17.25
2022-10-14T20:23:43.682Z,17.19
2022-10-14T20:26:18.042Z,17.13
2022-10-14T20:28:46.108Z,17.26
2022-10-14T20:31:16.168Z,17.30
2022-10-14T20:33:43.665Z,17.41
2022-10-14T20:36:18.246Z,17.35
2022-10-14T20:38:49.499Z,17.25
2022-10-14T20:41:24.314Z,17.12
2022-10-14T20:43:52.886Z,17.36
2022-10-14T20:46:21.770Z,17.33
2022-10-14T20:48:53.460Z,17.23
2022-10-14T20:51:22.598Z,17.30
2022-10-14T20:53:50.148Z,17.37
2022-10-14T20:56:17.461Z,17.63
2022-10-14T20:58:44.974Z,17.26
2022-10-14T21:01:17.109Z,16.87
2022-10-14T21:03:46.232Z,16.84
2022-10-14T21:06:26.903Z,17.19
2022-10-14T21:08:54.669Z,17.00
2022-10-14T21:11:23.425Z,16.95
2022-10-14T21:13:52.903Z,17.21
2022-10-14T21:16:25.793Z,17.00
2022-10-14T21:18:58.053Z,17.13
2022-10-14T21:21:27.241Z,16.93
2022-10-14T21:23:55.555Z,17.10
2022-10-14T21:26:23.096Z,17.21
2022-10-14T21:28:50.451Z,17.20
2022-10-14T21:31:19.312Z,17.30
2022-10-14T21:33:47.770Z,17.19
2022-10-14T21:36:16.700Z,17.00
2022-10-14T21:38:44.393Z,17.29
2022-10-14T21:41:12.107Z,17.17
2022-10-14T21:43:39.696Z,17.03
2022-10-14T21:46:14.322Z,17.01
2022-10-14T21:48:42.488Z,17.00
2022-10-14T21:51:12.089Z,16.96
2022-10-14T21:53:40.479Z,17.16
2022-10-14T21:56:08.300Z,17.29
2022-10-14T21:58:36.129Z,17.43
2022-10-14T22:01:24.340Z,17.19
2022-10-14T22:03:59.539Z,17.48
2022-10-14T22:06:27.237Z,17.55
2022-10-14T22:08:56.364Z,17.67
2022-10-14T22:11:29.152Z,17.47
2022-10-14T22:13:58.275Z,17.38
2022-10-14T22:16:28.907Z,17.08
2022-10-14T22:18:58.396Z,17.21
2022-10-14T22:21:27.336Z,16.96
2022-10-14T22:23:54.621Z,16.91
2022-10-14T22:26:23.853Z,17.08
2022-10-14T22:28:58.957Z,17.21
2022-10-14T22:31:27.340Z,17.15
2022-10-14T22:33:54.580Z,17.16
2022-10-14T22:36:24.353Z,17.29
2022-10-14T22:38:53.120Z,17.36
2022-10-14T22:41:21.156Z,17.19
2022-10-14T22:43:50.415Z,17.27
2022-10-14T22:46:22.291Z,17.00
2022-10-14T22:48:50.302Z,17.15
2022-10-14T22:51:20.074Z,17.43
2022-10-14T22:53:47.412Z,17.35
2022-10-14T22:56:22.467Z,17.20
2022-10-14T22:58:54.071Z,17.24
2022-10-14T23:01:22.247Z,17.55
2022-10-14T23:03:50.533Z,17.68
2022-10-14T23:06:17.774Z,17.63
2022-10-14T23:08:45.061Z,17.41
2022-10-14T23:11:18.459Z,17.46
2022-10-14T23:13:46.110Z,17.65
2022-10-14T23:16:31.653Z,17.76
2022-10-14T23:18:59.375Z,17.60
2022-10-14T23:21:29.198Z,17.68
2022-10-14T23:23:58.072Z,17.70
2022-10-14T23:26:27.141Z,17.57
2022-10-14T23:28:57.388Z,17.71
2022-10-14T23:31:25.547Z,17.71
2022-10-14T23:33:53.177Z,17.76
2022-10-14T23:36:21.968Z,17.79
2022-10-14T23:38:49.898Z,17.73
2022-10-14T23:41:17.155Z,17.62
2022-10-14T23:43:45.481Z,17.68
2022-10-14T23:46:12.960Z,17.77
2022-10-14T23:48:40.670Z,17.79
2022-10-14T23:51:08.634Z,17.77
2022-10-14T23:53:35.926Z,17.74
2022-10-14T23:56:04.367Z,17.74
2022-10-14T23:58:32.381Z,17.76
